Hadensville, Virginia
Current Conditions -  °F | °C
As of 3:35 AM on Wednesday 26 Nov 2014 (Local Time) from KLKU Reporting Station
Moderate Rain Moderate Rain  
Wind Chill: 41°   Ceiling: 3300
Heat Index: 45°   Visibility: 10mi
Dew Point: 43°   Wind: 7mph
Humidity: 93%   Direction: 360°N
Pressure: 30.03"   Gusts: NA
Location:  37.82°N, 78°W
Report Text: KLKU 260835Z AUTO 36006KT 10SM RA BKN033 BKN039 OVC047 07/06 A3003 RMK AO2 P0006
Loading
Personal Weather Stations






























Interactive Weather Map New forecast layout! Learn more

10-Day Weather Forecast

Advertisements
Track Severe Weather on mobile